sensor_id;sensor_type;location;lat;lon;timestamp;pressure;altitude;pressure_sealevel;temperature;humidity
77013;BME280;67260;53.130;17.982;2023-04-08T00:00:46;101678.25;;;7.19;86.49
77013;BME280;67260;53.130;17.982;2023-04-08T00:03:20;101677.98;;;7.22;86.37
77013;BME280;67260;53.130;17.982;2023-04-08T00:05:46;101677.11;;;7.24;86.42
77013;BME280;67260;53.130;17.982;2023-04-08T00:08:13;101681.94;;;7.25;86.03
77013;BME280;67260;53.130;17.982;2023-04-08T00:10:40;101684.60;;;7.23;86.12
77013;BME280;67260;53.130;17.982;2023-04-08T00:13:06;101686.74;;;7.23;86.34
77013;BME280;67260;53.130;17.982;2023-04-08T00:15:32;101687.01;;;7.22;86.14
77013;BME280;67260;53.130;17.982;2023-04-08T00:17:58;101690.31;;;7.20;85.92
77013;BME280;67260;53.130;17.982;2023-04-08T00:20:25;101691.92;;;7.18;85.97
77013;BME280;67260;53.130;17.982;2023-04-08T00:22:51;101692.29;;;7.17;86.05
77013;BME280;67260;53.130;17.982;2023-04-08T00:25:17;101692.92;;;7.14;86.29
77013;BME280;67260;53.130;17.982;2023-04-08T00:27:43;101694.48;;;7.11;86.09
77013;BME280;67260;53.130;17.982;2023-04-08T00:30:09;101695.91;;;7.09;86.22
77013;BME280;67260;53.130;17.982;2023-04-08T00:32:37;101701.30;;;7.07;86.28
77013;BME280;67260;53.130;17.982;2023-04-08T00:35:03;101702.91;;;7.05;86.16
77013;BME280;67260;53.130;17.982;2023-04-08T00:37:29;101704.24;;;7.00;86.25
77013;BME280;67260;53.130;17.982;2023-04-08T00:39:56;101704.35;;;6.96;86.37
77013;BME280;67260;53.130;17.982;2023-04-08T00:42:22;101706.12;;;6.93;86.68
77013;BME280;67260;53.130;17.982;2023-04-08T00:44:48;101707.33;;;6.89;86.62
77013;BME280;67260;53.130;17.982;2023-04-08T00:47:14;101708.91;;;6.86;86.51
77013;BME280;67260;53.130;17.982;2023-04-08T00:49:42;101710.80;;;6.83;86.81
77013;BME280;67260;53.130;17.982;2023-04-08T00:52:08;101712.52;;;6.78;86.59
77013;BME280;67260;53.130;17.982;2023-04-08T00:54:36;101713.81;;;6.73;86.71
77013;BME280;67260;53.130;17.982;2023-04-08T00:57:05;101718.67;;;6.68;86.74
77013;BME280;67260;53.130;17.982;2023-04-08T00:59:32;101714.94;;;6.62;87.00
77013;BME280;67260;53.130;17.982;2023-04-08T01:02:13;101717.71;;;6.57;86.88
77013;BME280;67260;53.130;17.982;2023-04-08T01:07:21;101722.61;;;6.47;86.88
77013;BME280;67260;53.130;17.982;2023-04-08T01:10:00;101728.90;;;6.42;87.17
77013;BME280;67260;53.130;17.982;2023-04-08T01:12:30;101728.71;;;6.39;87.12
77013;BME280;67260;53.130;17.982;2023-04-08T01:15:00;101728.52;;;6.34;87.13
77013;BME280;67260;53.130;17.982;2023-04-08T01:17:29;101729.54;;;6.30;86.98
77013;BME280;67260;53.130;17.982;2023-04-08T01:19:59;101733.11;;;6.26;87.04
77013;BME280;67260;53.130;17.982;2023-04-08T01:25:23;101736.49;;;6.16;87.02
77013;BME280;67260;53.130;17.982;2023-04-08T01:27:51;101737.06;;;6.08;87.20
77013;BME280;67260;53.130;17.982;2023-04-08T01:30:19;101739.09;;;6.02;87.33
77013;BME280;67260;53.130;17.982;2023-04-08T01:32:45;101740.89;;;5.96;87.33
77013;BME280;67260;53.130;17.982;2023-04-08T01:35:14;101740.70;;;5.91;87.30
77013;BME280;67260;53.130;17.982;2023-04-08T01:37:41;101744.61;;;5.87;87.48
77013;BME280;67260;53.130;17.982;2023-04-08T01:40:09;101748.05;;;5.84;87.47
77013;BME280;67260;53.130;17.982;2023-04-08T01:42:37;101747.20;;;5.82;87.42
77013;BME280;67260;53.130;17.982;2023-04-08T01:48:17;101743.92;;;5.76;87.49
77013;BME280;67260;53.130;17.982;2023-04-08T01:50:44;101747.88;;;5.73;87.50
77013;BME280;67260;53.130;17.982;2023-04-08T01:53:12;101750.52;;;5.70;87.60
77013;BME280;67260;53.130;17.982;2023-04-08T01:55:40;101752.59;;;5.67;87.55
77013;BME280;67260;53.130;17.982;2023-04-08T01:58:08;101758.61;;;5.63;87.43
77013;BME280;67260;53.130;17.982;2023-04-08T02:00:39;101759.14;;;5.57;87.36
77013;BME280;67260;53.130;17.982;2023-04-08T02:03:10;101765.27;;;5.52;87.56
77013;BME280;67260;53.130;17.982;2023-04-08T02:05:38;101764.69;;;5.49;87.77
77013;BME280;67260;53.130;17.982;2023-04-08T02:08:06;101764.61;;;5.48;87.85
77013;BME280;67260;53.130;17.982;2023-04-08T02:10:32;101767.98;;;5.47;87.66
77013;BME280;67260;53.130;17.982;2023-04-08T02:12:58;101765.67;;;5.46;87.54
77013;BME280;67260;53.130;17.982;2023-04-08T02:15:25;101768.05;;;5.43;87.68
77013;BME280;67260;53.130;17.982;2023-04-08T02:17:55;101773.41;;;5.40;87.57
77013;BME280;67260;53.130;17.982;2023-04-08T02:20:37;101774.95;;;5.37;87.53
77013;BME280;67260;53.130;17.982;2023-04-08T02:23:11;101773.55;;;5.32;87.43
77013;BME280;67260;53.130;17.982;2023-04-08T02:25:44;101776.61;;;5.27;87.35
77013;BME280;67260;53.130;17.982;2023-04-08T02:28:14;101777.34;;;5.21;87.09
77013;BME280;67260;53.130;17.982;2023-04-08T02:30:50;101778.45;;;5.15;87.19
77013;BME280;67260;53.130;17.982;2023-04-08T02:33:20;101784.31;;;5.09;87.17
77013;BME280;67260;53.130;17.982;2023-04-08T02:35:49;101782.87;;;5.02;87.26
77013;BME280;67260;53.130;17.982;2023-04-08T02:38:16;101786.94;;;4.96;87.19
77013;BME280;67260;53.130;17.982;2023-04-08T02:40:43;101792.23;;;4.90;87.09
77013;BME280;67260;53.130;17.982;2023-04-08T02:43:09;101793.13;;;4.82;86.89
77013;BME280;67260;53.130;17.982;2023-04-08T02:45:45;101795.65;;;4.75;86.97
77013;BME280;67260;53.130;17.982;2023-04-08T02:48:13;101795.61;;;4.67;86.98
77013;BME280;67260;53.130;17.982;2023-04-08T02:50:39;101802.30;;;4.62;86.93
77013;BME280;67260;53.130;17.982;2023-04-08T02:53:07;101802.14;;;4.57;87.17
77013;BME280;67260;53.130;17.982;2023-04-08T02:55:33;101804.73;;;4.54;87.21
77013;BME280;67260;53.130;17.982;2023-04-08T02:58:00;101813.55;;;4.50;87.31
77013;BME280;67260;53.130;17.982;2023-04-08T03:00:26;101814.91;;;4.44;87.26
77013;BME280;67260;53.130;17.982;2023-04-08T03:02:52;101816.50;;;4.39;87.27
77013;BME280;67260;53.130;17.982;2023-04-08T03:05:19;101815.20;;;4.32;87.02
77013;BME280;67260;53.130;17.982;2023-04-08T03:07:46;101814.73;;;4.25;87.08
77013;BME280;67260;53.130;17.982;2023-04-08T03:10:13;101820.83;;;4.18;87.07
77013;BME280;67260;53.130;17.982;2023-04-08T03:12:44;101824.91;;;4.12;87.22
77013;BME280;67260;53.130;17.982;2023-04-08T03:15:12;101823.06;;;4.06;87.49
77013;BME280;67260;53.130;17.982;2023-04-08T03:17:38;101825.21;;;4.03;87.51
77013;BME280;67260;53.130;17.982;2023-04-08T03:20:04;101826.89;;;4.00;87.49
77013;BME280;67260;53.130;17.982;2023-04-08T03:22:32;101829.47;;;3.97;87.45
77013;BME280;67260;53.130;17.982;2023-04-08T03:25:04;101829.10;;;3.92;87.51
77013;BME280;67260;53.130;17.982;2023-04-08T03:27:30;101825.99;;;3.90;87.47
77013;BME280;67260;53.130;17.982;2023-04-08T03:30:02;101824.75;;;3.88;87.50
77013;BME280;67260;53.130;17.982;2023-04-08T03:32:33;101825.19;;;3.85;87.42
77013;BME280;67260;53.130;17.982;2023-04-08T03:35:01;101825.46;;;3.82;87.29
77013;BME280;67260;53.130;17.982;2023-04-08T03:37:45;101832.75;;;3.77;87.28
77013;BME280;67260;53.130;17.982;2023-04-08T03:40:15;101831.59;;;3.72;87.34
77013;BME280;67260;53.130;17.982;2023-04-08T03:42:41;101836.95;;;3.67;87.47
77013;BME280;67260;53.130;17.982;2023-04-08T03:45:08;101834.73;;;3.63;87.47
77013;BME280;67260;53.130;17.982;2023-04-08T03:47:34;101839.53;;;3.60;87.65
77013;BME280;67260;53.130;17.982;2023-04-08T03:50:01;101841.80;;;3.60;87.93
77013;BME280;67260;53.130;17.982;2023-04-08T03:52:35;101842.47;;;3.60;87.95
77013;BME280;67260;53.130;17.982;2023-04-08T03:55:15;101843.01;;;3.58;87.57
77013;BME280;67260;53.130;17.982;2023-04-08T03:57:43;101849.04;;;3.55;87.64
77013;BME280;67260;53.130;17.982;2023-04-08T04:00:14;101852.98;;;3.52;87.58
77013;BME280;67260;53.130;17.982;2023-04-08T04:02:41;101852.83;;;3.50;87.61
77013;BME280;67260;53.130;17.982;2023-04-08T04:05:09;101850.70;;;3.48;87.79
77013;BME280;67260;53.130;17.982;2023-04-08T04:07:59;101852.96;;;3.48;87.63
77013;BME280;67260;53.130;17.982;2023-04-08T04:10:27;101855.66;;;3.48;87.45
77013;BME280;67260;53.130;17.982;2023-04-08T04:12:55;101860.39;;;3.46;87.37
77013;BME280;67260;53.130;17.982;2023-04-08T04:15:28;101856.52;;;3.42;87.22
77013;BME280;67260;53.130;17.982;2023-04-08T04:17:56;101863.50;;;3.42;87.41
77013;BME280;67260;53.130;17.982;2023-04-08T04:20:26;101862.42;;;3.42;87.48
77013;BME280;67260;53.130;17.982;2023-04-08T04:22:59;101859.35;;;3.41;87.29
77013;BME280;67260;53.130;17.982;2023-04-08T04:25:35;101867.80;;;3.45;87.01
77013;BME280;67260;53.130;17.982;2023-04-08T04:28:06;101870.79;;;3.45;86.91
77013;BME280;67260;53.130;17.982;2023-04-08T04:30:42;101873.67;;;3.48;86.99
77013;BME280;67260;53.130;17.982;2023-04-08T04:33:10;101875.40;;;3.52;86.93
77013;BME280;67260;53.130;17.982;2023-04-08T04:35:38;101877.98;;;3.57;86.87
77013;BME280;67260;53.130;17.982;2023-04-08T04:38:07;101882.77;;;3.62;86.59
77013;BME280;67260;53.130;17.982;2023-04-08T04:40:46;101883.73;;;3.67;86.63
77013;BME280;67260;53.130;17.982;2023-04-08T04:43:17;101890.25;;;3.73;86.19
77013;BME280;67260;53.130;17.982;2023-04-08T04:45:45;101891.29;;;3.77;85.85
77013;BME280;67260;53.130;17.982;2023-04-08T04:48:18;101893.98;;;3.82;85.91
77013;BME280;67260;53.130;17.982;2023-04-08T04:50:58;101893.87;;;3.89;85.86
77013;BME280;67260;53.130;17.982;2023-04-08T04:53:29;101898.27;;;3.97;85.74
77013;BME280;67260;53.130;17.982;2023-04-08T04:55:58;101898.19;;;4.02;85.22
77013;BME280;67260;53.130;17.982;2023-04-08T04:58:29;101904.19;;;4.10;85.20
77013;BME280;67260;53.130;17.982;2023-04-08T05:00:58;101905.39;;;4.17;85.10
77013;BME280;67260;53.130;17.982;2023-04-08T05:03:31;101901.58;;;4.28;85.08
77013;BME280;67260;53.130;17.982;2023-04-08T05:05:59;101908.58;;;4.41;85.00
77013;BME280;67260;53.130;17.982;2023-04-08T05:08:26;101908.64;;;4.50;84.61
77013;BME280;67260;53.130;17.982;2023-04-08T05:10:52;101912.83;;;4.62;84.61
77013;BME280;67260;53.130;17.982;2023-04-08T05:13:24;101920.96;;;4.76;84.19
77013;BME280;67260;53.130;17.982;2023-04-08T05:15:53;101917.64;;;4.80;83.52
77013;BME280;67260;53.130;17.982;2023-04-08T05:18:19;101918.25;;;4.88;83.47
77013;BME280;67260;53.130;17.982;2023-04-08T05:20:48;101920.84;;;4.99;83.23
77013;BME280;67260;53.130;17.982;2023-04-08T05:23:15;101923.73;;;5.13;83.60
77013;BME280;67260;53.130;17.982;2023-04-08T05:25:50;101925.60;;;5.34;83.52
77013;BME280;67260;53.130;17.982;2023-04-08T05:28:16;101930.33;;;5.56;83.44
77013;BME280;67260;53.130;17.982;2023-04-08T05:30:48;101930.22;;;5.76;82.83
77013;BME280;67260;53.130;17.982;2023-04-08T05:33:17;101928.70;;;5.88;82.23
77013;BME280;67260;53.130;17.982;2023-04-08T05:35:44;101931.48;;;6.04;82.21
77013;BME280;67260;53.130;17.982;2023-04-08T05:38:11;101933.29;;;6.21;82.27
77013;BME280;67260;53.130;17.982;2023-04-08T05:40:38;101935.79;;;6.35;81.48
77013;BME280;67260;53.130;17.982;2023-04-08T05:43:07;101934.77;;;6.51;81.55
77013;BME280;67260;53.130;17.982;2023-04-08T05:45:38;101929.41;;;7.34;80.64
77013;BME280;67260;53.130;17.982;2023-04-08T05:48:05;101934.77;;;9.54;76.05
77013;BME280;67260;53.130;17.982;2023-04-08T05:50:33;101930.48;;;11.27;72.96
77013;BME280;67260;53.130;17.982;2023-04-08T05:53:09;101931.93;;;13.14;70.21
77013;BME280;67260;53.130;17.982;2023-04-08T05:55:41;101933.39;;;14.86;67.13
77013;BME280;67260;53.130;17.982;2023-04-08T05:58:09;101934.48;;;16.24;64.65
77013;BME280;67260;53.130;17.982;2023-04-08T06:00:37;101941.08;;;17.28;62.63
77013;BME280;67260;53.130;17.982;2023-04-08T06:03:03;101938.11;;;18.10;60.35
77013;BME280;67260;53.130;17.982;2023-04-08T06:05:30;101936.98;;;18.98;59.14
77013;BME280;67260;53.130;17.982;2023-04-08T06:07:56;101942.04;;;19.64;54.36
77013;BME280;67260;53.130;17.982;2023-04-08T06:10:23;101940.28;;;20.13;53.06
77013;BME280;67260;53.130;17.982;2023-04-08T06:12:53;101943.87;;;20.80;53.48
77013;BME280;67260;53.130;17.982;2023-04-08T06:15:19;101951.86;;;20.68;53.18
77013;BME280;67260;53.130;17.982;2023-04-08T06:17:46;101948.61;;;20.62;53.56
77013;BME280;67260;53.130;17.982;2023-04-08T06:20:12;101951.31;;;21.84;48.19
77013;BME280;67260;53.130;17.982;2023-04-08T06:22:39;101956.59;;;22.22;48.27
77013;BME280;67260;53.130;17.982;2023-04-08T06:25:06;101957.36;;;22.67;47.19
77013;BME280;67260;53.130;17.982;2023-04-08T06:27:34;101958.02;;;23.31;45.24
77013;BME280;67260;53.130;17.982;2023-04-08T06:30:02;101958.01;;;24.00;43.06
77013;BME280;67260;53.130;17.982;2023-04-08T06:32:28;101961.61;;;24.38;40.64
77013;BME280;67260;53.130;17.982;2023-04-08T06:34:54;101966.21;;;24.59;39.21
77013;BME280;67260;53.130;17.982;2023-04-08T06:37:21;101970.41;;;24.76;38.05
77013;BME280;67260;53.130;17.982;2023-04-08T06:39:47;101969.91;;;25.00;38.52
77013;BME280;67260;53.130;17.982;2023-04-08T06:42:16;101973.83;;;25.42;37.42
77013;BME280;67260;53.130;17.982;2023-04-08T06:44:52;101972.33;;;25.58;34.85
77013;BME280;67260;53.130;17.982;2023-04-08T06:47:19;101972.09;;;25.40;35.88
77013;BME280;67260;53.130;17.982;2023-04-08T06:49:47;101976.45;;;25.83;35.50
77013;BME280;67260;53.130;17.982;2023-04-08T06:52:13;101982.50;;;26.42;35.80
77013;BME280;67260;53.130;17.982;2023-04-08T06:54:40;101976.73;;;26.90;32.00
77013;BME280;67260;53.130;17.982;2023-04-08T06:57:07;101979.30;;;27.07;32.33
77013;BME280;67260;53.130;17.982;2023-04-08T06:59:34;101977.58;;;27.34;31.07
77013;BME280;67260;53.130;17.982;2023-04-08T07:02:00;101984.59;;;27.86;30.89
77013;BME280;67260;53.130;17.982;2023-04-08T07:04:26;101983.68;;;28.25;28.98
77013;BME280;67260;53.130;17.982;2023-04-08T07:06:52;101987.45;;;28.39;29.08
77013;BME280;67260;53.130;17.982;2023-04-08T07:09:18;101992.75;;;28.80;29.23
77013;BME280;67260;53.130;17.982;2023-04-08T07:11:44;101991.22;;;29.35;27.49
77013;BME280;67260;53.130;17.982;2023-04-08T07:14:10;101993.19;;;29.34;27.21
77013;BME280;67260;53.130;17.982;2023-04-08T07:16:36;101992.14;;;29.33;26.99
77013;BME280;67260;53.130;17.982;2023-04-08T07:19:02;101997.30;;;29.50;25.63
77013;BME280;67260;53.130;17.982;2023-04-08T07:21:28;101999.01;;;29.49;26.30
77013;BME280;67260;53.130;17.982;2023-04-08T07:23:56;102002.02;;;30.07;24.79
77013;BME280;67260;53.130;17.982;2023-04-08T07:26:22;102001.02;;;30.52;23.66
77013;BME280;67260;53.130;17.982;2023-04-08T07:28:49;102007.86;;;30.63;23.95
77013;BME280;67260;53.130;17.982;2023-04-08T07:31:17;102004.05;;;28.40;25.57
77013;BME280;67260;53.130;17.982;2023-04-08T07:33:44;102013.00;;;28.64;25.18
77013;BME280;67260;53.130;17.982;2023-04-08T07:36:12;102010.10;;;28.98;25.39
77013;BME280;67260;53.130;17.982;2023-04-08T07:38:38;102018.64;;;27.24;26.31
77013;BME280;67260;53.130;17.982;2023-04-08T07:41:05;102015.35;;;24.93;27.61
77013;BME280;67260;53.130;17.982;2023-04-08T07:43:32;102021.38;;;22.57;29.77
77013;BME280;67260;53.130;17.982;2023-04-08T07:46:07;102027.86;;;20.28;32.22
77013;BME280;67260;53.130;17.982;2023-04-08T07:48:34;102028.85;;;18.58;34.81
77013;BME280;67260;53.130;17.982;2023-04-08T07:51:05;102031.02;;;17.39;37.30
77013;BME280;67260;53.130;17.982;2023-04-08T07:53:31;102033.70;;;16.49;39.40
77013;BME280;67260;53.130;17.982;2023-04-08T07:56:17;102034.96;;;16.02;40.16
77013;BME280;67260;53.130;17.982;2023-04-08T07:58:47;102038.47;;;15.51;41.32
77013;BME280;67260;53.130;17.982;2023-04-08T08:01:21;102037.04;;;15.31;42.51
77013;BME280;67260;53.130;17.982;2023-04-08T08:03:53;102044.52;;;15.16;42.38
77013;BME280;67260;53.130;17.982;2023-04-08T08:06:20;102041.36;;;15.49;42.08
77013;BME280;67260;53.130;17.982;2023-04-08T08:08:47;102045.38;;;16.24;41.66
77013;BME280;67260;53.130;17.982;2023-04-08T08:11:13;102045.77;;;16.78;40.78
77013;BME280;67260;53.130;17.982;2023-04-08T08:13:42;102047.12;;;16.06;41.83
77013;BME280;67260;53.130;17.982;2023-04-08T08:16:09;102050.90;;;15.19;43.04
77013;BME280;67260;53.130;17.982;2023-04-08T08:18:37;102054.16;;;14.92;43.40
77013;BME280;67260;53.130;17.982;2023-04-08T08:21:08;102059.80;;;14.94;43.86
77013;BME280;67260;53.130;17.982;2023-04-08T08:23:34;102059.66;;;14.87;43.98
77013;BME280;67260;53.130;17.982;2023-04-08T08:26:04;102061.88;;;14.68;44.44
77013;BME280;67260;53.130;17.982;2023-04-08T08:28:32;102064.85;;;14.24;45.14
77013;BME280;67260;53.130;17.982;2023-04-08T08:31:05;102061.66;;;13.69;46.31
77013;BME280;67260;53.130;17.982;2023-04-08T08:33:33;102067.80;;;13.13;47.59
77013;BME280;67260;53.130;17.982;2023-04-08T08:35:59;102070.04;;;12.89;48.67
77013;BME280;67260;53.130;17.982;2023-04-08T08:38:27;102073.33;;;13.83;47.32
77013;BME280;67260;53.130;17.982;2023-04-08T08:40:56;102070.02;;;14.22;46.48
77013;BME280;67260;53.130;17.982;2023-04-08T08:43:25;102079.11;;;13.96;46.66
77013;BME280;67260;53.130;17.982;2023-04-08T08:45:54;102078.88;;;13.58;47.42
77013;BME280;67260;53.130;17.982;2023-04-08T08:48:21;102082.13;;;13.47;47.79
77013;BME280;67260;53.130;17.982;2023-04-08T08:50:47;102086.88;;;13.79;47.07
77013;BME280;67260;53.130;17.982;2023-04-08T08:53:14;102083.49;;;16.16;42.99
77013;BME280;67260;53.130;17.982;2023-04-08T08:55:41;102085.06;;;17.99;39.42
77013;BME280;67260;53.130;17.982;2023-04-08T08:58:08;102084.20;;;16.99;40.91
77013;BME280;67260;53.130;17.982;2023-04-08T09:00:43;102090.36;;;15.98;42.65
77013;BME280;67260;53.130;17.982;2023-04-08T09:04:36;102095.88;;;14.72;44.52
77013;BME280;67260;53.130;17.982;2023-04-08T09:07:11;102096.13;;;14.21;45.70
77013;BME280;67260;53.130;17.982;2023-04-08T09:09:49;102098.65;;;13.93;46.13
77013;BME280;67260;53.130;17.982;2023-04-08T09:12:16;102102.85;;;13.82;46.26
77013;BME280;67260;53.130;17.982;2023-04-08T09:14:42;102100.55;;;13.95;46.20
77013;BME280;67260;53.130;17.982;2023-04-08T09:17:09;102102.30;;;14.66;45.11
77013;BME280;67260;53.130;17.982;2023-04-08T09:19:35;102095.66;;;16.53;42.53
77013;BME280;67260;53.130;17.982;2023-04-08T09:22:10;102093.72;;;16.56;41.91
77013;BME280;67260;53.130;17.982;2023-04-08T09:24:39;102099.42;;;16.05;41.93
77013;BME280;67260;53.130;17.982;2023-04-08T09:27:06;102099.00;;;15.47;43.10
77013;BME280;67260;53.130;17.982;2023-04-08T09:29:32;102108.20;;;15.04;43.93
77013;BME280;67260;53.130;17.982;2023-04-08T09:32:15;102110.89;;;14.94;44.18
77013;BME280;67260;53.130;17.982;2023-04-08T09:34:41;102113.30;;;15.00;44.74
77013;BME280;67260;53.130;17.982;2023-04-08T09:37:07;102115.96;;;15.50;44.08
77013;BME280;67260;53.130;17.982;2023-04-08T09:39:33;102112.70;;;17.47;41.27
77013;BME280;67260;53.130;17.982;2023-04-08T09:41:59;102114.62;;;17.37;40.05
77013;BME280;67260;53.130;17.982;2023-04-08T09:44:28;102113.89;;;16.66;40.98
77013;BME280;67260;53.130;17.982;2023-04-08T09:47:03;102114.06;;;16.26;41.54
77013;BME280;67260;53.130;17.982;2023-04-08T09:49:56;102114.23;;;16.11;41.96
77013;BME280;67260;53.130;17.982;2023-04-08T09:52:38;102114.22;;;16.16;42.03
77013;BME280;67260;53.130;17.982;2023-04-08T09:55:12;102113.02;;;16.57;41.64
77013;BME280;67260;53.130;17.982;2023-04-08T10:00:11;102110.75;;;16.87;40.90
77013;BME280;67260;53.130;17.982;2023-04-08T10:02:59;102110.99;;;17.30;40.72
77013;BME280;67260;53.130;17.982;2023-04-08T10:05:26;102106.73;;;18.02;39.95
77013;BME280;67260;53.130;17.982;2023-04-08T10:07:55;102103.70;;;19.58;37.56
77013;BME280;67260;53.130;17.982;2023-04-08T10:10:21;102096.79;;;21.37;34.99
77013;BME280;67260;53.130;17.982;2023-04-08T10:12:51;102096.70;;;22.65;32.74
77013;BME280;67260;53.130;17.982;2023-04-08T10:15:22;102099.31;;;23.57;32.41
77013;BME280;67260;53.130;17.982;2023-04-08T10:18:40;102091.48;;;24.68;30.86
77013;BME280;67260;53.130;17.982;2023-04-08T10:20:46;102088.32;;;25.46;28.67
77013;BME280;67260;53.130;17.982;2023-04-08T10:23:17;102083.63;;;25.79;28.20
77013;BME280;67260;53.130;17.982;2023-04-08T10:25:47;102083.23;;;26.17;28.09
77013;BME280;67260;53.130;17.982;2023-04-08T10:30:41;102081.32;;;27.96;27.56
77013;BME280;67260;53.130;17.982;2023-04-08T10:35:46;102067.91;;;29.19;24.26
77013;BME280;67260;53.130;17.982;2023-04-08T10:38:14;102068.34;;;29.14;24.65
77013;BME280;67260;53.130;17.982;2023-04-08T10:40:41;102063.57;;;29.30;24.13
77013;BME280;67260;53.130;17.982;2023-04-08T10:43:11;102064.95;;;29.35;23.37
77013;BME280;67260;53.130;17.982;2023-04-08T10:45:38;102066.15;;;29.39;23.78
77013;BME280;67260;53.130;17.982;2023-04-08T10:50:44;102060.92;;;29.63;22.76
77013;BME280;67260;53.130;17.982;2023-04-08T10:53:16;102064.44;;;29.69;22.47
77013;BME280;67260;53.130;17.982;2023-04-08T10:55:42;102061.77;;;29.43;21.92
77013;BME280;67260;53.130;17.982;2023-04-08T10:58:09;102059.61;;;29.02;21.65
77013;BME280;67260;53.130;17.982;2023-04-08T11:00:37;102056.54;;;28.59;22.11
77013;BME280;67260;53.130;17.982;2023-04-08T11:03:06;102061.05;;;28.57;22.60
77013;BME280;67260;53.130;17.982;2023-04-08T11:05:34;102058.33;;;28.64;22.48
77013;BME280;67260;53.130;17.982;2023-04-08T11:08:06;102059.34;;;28.66;22.49
77013;BME280;67260;53.130;17.982;2023-04-08T11:10:37;102053.38;;;28.66;22.60
77013;BME280;67260;53.130;17.982;2023-04-08T11:13:06;102048.78;;;28.78;22.86
77013;BME280;67260;53.130;17.982;2023-04-08T11:15:36;102052.61;;;28.77;21.97
77013;BME280;67260;53.130;17.982;2023-04-08T11:18:04;102049.70;;;28.22;22.00
77013;BME280;67260;53.130;17.982;2023-04-08T11:20:50;102055.37;;;27.79;22.81
77013;BME280;67260;53.130;17.982;2023-04-08T11:23:16;102057.48;;;27.51;22.80
77013;BME280;67260;53.130;17.982;2023-04-08T11:25:46;102049.77;;;27.03;22.97
77013;BME280;67260;53.130;17.982;2023-04-08T11:28:15;102056.12;;;26.50;23.38
77013;BME280;67260;53.130;17.982;2023-04-08T11:31:08;102051.23;;;26.04;23.67
77013;BME280;67260;53.130;17.982;2023-04-08T11:33:35;102059.59;;;25.52;24.27
77013;BME280;67260;53.130;17.982;2023-04-08T11:36:05;102044.80;;;25.04;24.32
77013;BME280;67260;53.130;17.982;2023-04-08T11:38:38;102052.26;;;24.70;24.73
77013;BME280;67260;53.130;17.982;2023-04-08T11:41:09;102052.10;;;24.24;25.20
77013;BME280;67260;53.130;17.982;2023-04-08T11:43:36;102045.15;;;23.76;25.68
77013;BME280;67260;53.130;17.982;2023-04-08T11:46:11;102050.36;;;23.69;26.01
77013;BME280;67260;53.130;17.982;2023-04-08T11:49:04;102051.03;;;24.07;26.04
77013;BME280;67260;53.130;17.982;2023-04-08T11:51:33;102049.83;;;24.25;25.62
77013;BME280;67260;53.130;17.982;2023-04-08T11:54:04;102056.09;;;24.07;25.85
77013;BME280;67260;53.130;17.982;2023-04-08T11:56:44;102056.02;;;23.50;26.04
77013;BME280;67260;53.130;17.982;2023-04-08T11:59:40;102055.96;;;23.17;26.63
77013;BME280;67260;53.130;17.982;2023-04-08T12:02:07;102052.55;;;22.80;27.13
77013;BME280;67260;53.130;17.982;2023-04-08T12:04:36;102049.70;;;22.44;27.54
77013;BME280;67260;53.130;17.982;2023-04-08T12:07:02;102047.58;;;22.15;27.95
77013;BME280;67260;53.130;17.982;2023-04-08T12:09:38;102039.65;;;21.90;28.39
77013;BME280;67260;53.130;17.982;2023-04-08T12:12:23;102046.33;;;21.57;28.63
77013;BME280;67260;53.130;17.982;2023-04-08T12:14:50;102047.73;;;21.24;29.14
77013;BME280;67260;53.130;17.982;2023-04-08T12:26:00;102040.92;;;19.04;32.22
77013;BME280;67260;53.130;17.982;2023-04-08T12:28:26;102041.58;;;18.62;32.89
77013;BME280;67260;53.130;17.982;2023-04-08T12:30:52;102040.76;;;17.99;33.35
77013;BME280;67260;53.130;17.982;2023-04-08T12:33:18;102037.98;;;17.43;34.05
77013;BME280;67260;53.130;17.982;2023-04-08T12:35:44;102032.61;;;17.07;34.50
77013;BME280;67260;53.130;17.982;2023-04-08T12:38:13;102036.77;;;16.70;35.48
77013;BME280;67260;53.130;17.982;2023-04-08T12:40:41;102033.02;;;16.36;36.47
77013;BME280;67260;53.130;17.982;2023-04-08T12:43:10;102029.75;;;16.13;36.58
77013;BME280;67260;53.130;17.982;2023-04-08T12:45:37;102028.71;;;16.00;36.68
77013;BME280;67260;53.130;17.982;2023-04-08T12:48:03;102029.77;;;15.88;37.14
77013;BME280;67260;53.130;17.982;2023-04-08T12:50:29;102030.73;;;15.77;37.45
77013;BME280;67260;53.130;17.982;2023-04-08T12:52:55;102031.61;;;15.68;38.03
77013;BME280;67260;53.130;17.982;2023-04-08T12:55:22;102031.61;;;15.57;38.32
77013;BME280;67260;53.130;17.982;2023-04-08T12:57:50;102032.04;;;15.29;38.95
77013;BME280;67260;53.130;17.982;2023-04-08T13:00:18;102031.33;;;15.03;39.52
77013;BME280;67260;53.130;17.982;2023-04-08T13:02:45;102030.70;;;14.94;39.54
77013;BME280;67260;53.130;17.982;2023-04-08T13:05:11;102026.58;;;14.96;39.57
77013;BME280;67260;53.130;17.982;2023-04-08T13:07:37;102026.84;;;15.02;39.75
77013;BME280;67260;53.130;17.982;2023-04-08T13:10:03;102026.88;;;15.05;39.83
77013;BME280;67260;53.130;17.982;2023-04-08T13:12:31;102025.15;;;15.04;39.72
77013;BME280;67260;53.130;17.982;2023-04-08T13:14:58;102027.67;;;15.12;39.86
77013;BME280;67260;53.130;17.982;2023-04-08T13:17:25;102022.95;;;15.20;39.82
77013;BME280;67260;53.130;17.982;2023-04-08T13:19:51;102022.78;;;15.28;39.69
77013;BME280;67260;53.130;17.982;2023-04-08T13:22:17;102022.41;;;15.28;39.92
77013;BME280;67260;53.130;17.982;2023-04-08T13:24:43;102024.89;;;15.22;39.89